sensor_id;sensor_type;location;lat;lon;timestamp;pressure;altitude;pressure_sealevel;temperature;humidity
40982;BME280;26708;50.304;19.028;2023-05-02T00:00:33;98248.19;;;12.25;44.59
40982;BME280;26708;50.304;19.028;2023-05-02T00:02:39;98294.06;;;12.57;44.62
40982;BME280;26708;50.304;19.028;2023-05-02T00:04:46;98267.22;;;12.40;44.68
40982;BME280;26708;50.304;19.028;2023-05-02T00:06:51;98262.03;;;12.34;44.82
40982;BME280;26708;50.304;19.028;2023-05-02T00:08:56;98286.25;;;12.54;44.94
40982;BME280;26708;50.304;19.028;2023-05-02T00:11:01;98290.56;;;12.57;44.60
40982;BME280;26708;50.304;19.028;2023-05-02T00:13:06;98294.97;;;12.55;44.46
40982;BME280;26708;50.304;19.028;2023-05-02T00:15:11;98290.63;;;12.54;44.61
40982;BME280;26708;50.304;19.028;2023-05-02T00:17:16;98174.34;;;11.88;44.59
40982;BME280;26708;50.304;19.028;2023-05-02T00:19:22;98288.97;;;12.48;44.92
40982;BME280;26708;50.304;19.028;2023-05-02T00:21:30;98284.63;;;12.44;44.96
40982;BME280;26708;50.304;19.028;2023-05-02T00:23:35;98285.53;;;12.42;45.23
40982;BME280;26708;50.304;19.028;2023-05-02T00:25:43;98284.75;;;12.37;45.48
40982;BME280;26708;50.304;19.028;2023-05-02T00:27:48;98259.69;;;12.16;45.67
40982;BME280;26708;50.304;19.028;2023-05-02T00:29:53;98222.38;;;11.93;45.89
40982;BME280;26708;50.304;19.028;2023-05-02T00:31:59;98155.63;;;11.52;45.91
40982;BME280;26708;50.304;19.028;2023-05-02T00:34:03;98283.16;;;12.25;45.91
40982;BME280;26708;50.304;19.028;2023-05-02T00:36:12;98285.84;;;12.21;45.90
40982;BME280;26708;50.304;19.028;2023-05-02T00:38:21;98285.91;;;12.16;45.94
40982;BME280;26708;50.304;19.028;2023-05-02T00:40:26;98288.53;;;12.16;45.91
40982;BME280;26708;50.304;19.028;2023-05-02T00:42:32;98267.66;;;12.07;45.93
40982;BME280;26708;50.304;19.028;2023-05-02T00:44:38;98271.00;;;12.20;46.80
40982;BME280;26708;50.304;19.028;2023-05-02T00:46:42;98042.06;;;10.85;47.57
40982;BME280;26708;50.304;19.028;2023-05-02T00:48:47;98282.06;;;12.41;47.60
40982;BME280;26708;50.304;19.028;2023-05-02T00:50:53;98287.25;;;12.44;47.63
40982;BME280;26708;50.304;19.028;2023-05-02T00:52:59;98250.78;;;12.26;47.29
40982;BME280;26708;50.304;19.028;2023-05-02T00:55:08;98270.75;;;12.35;47.42
40982;BME280;26708;50.304;19.028;2023-05-02T00:57:13;98283.72;;;12.48;47.05
40982;BME280;26708;50.304;19.028;2023-05-02T00:59:18;98284.50;;;12.53;46.98
40982;BME280;26708;50.304;19.028;2023-05-02T01:01:35;98259.47;;;12.30;46.44
40982;BME280;26708;50.304;19.028;2023-05-02T01:04:07;98283.66;;;12.51;46.13
40982;BME280;26708;50.304;19.028;2023-05-02T01:06:36;98282.84;;;12.46;46.32
40982;BME280;26708;50.304;19.028;2023-05-02T01:09:15;98163.38;;;11.61;46.41
40982;BME280;26708;50.304;19.028;2023-05-02T01:11:44;98275.28;;;12.25;46.77
40982;BME280;26708;50.304;19.028;2023-05-02T01:13:58;98123.63;;;11.29;46.97
40982;BME280;26708;50.304;19.028;2023-05-02T01:16:11;98178.28;;;11.58;47.08
40982;BME280;26708;50.304;19.028;2023-05-02T01:18:29;98239.94;;;11.87;47.13
40982;BME280;26708;50.304;19.028;2023-05-02T01:20:42;98247.78;;;11.88;47.67
40982;BME280;26708;50.304;19.028;2023-05-02T01:22:51;98280.88;;;12.02;47.80
40982;BME280;26708;50.304;19.028;2023-05-02T01:25:07;98289.63;;;11.97;47.84
40982;BME280;26708;50.304;19.028;2023-05-02T01:27:42;98096.19;;;10.83;48.23
40982;BME280;26708;50.304;19.028;2023-05-02T01:29:59;98277.56;;;11.83;48.42
40982;BME280;26708;50.304;19.028;2023-05-02T01:32:08;98040.91;;;10.33;48.53
40982;BME280;26708;50.304;19.028;2023-05-02T01:34:19;98134.59;;;10.83;48.86
40982;BME280;26708;50.304;19.028;2023-05-02T01:36:29;98280.44;;;11.64;49.08
40982;BME280;26708;50.304;19.028;2023-05-02T01:38:38;98164.25;;;10.89;49.14
40982;BME280;26708;50.304;19.028;2023-05-02T01:40:46;98226.75;;;11.22;49.44
40982;BME280;26708;50.304;19.028;2023-05-02T01:42:56;98242.47;;;11.22;49.49
40982;BME280;26708;50.304;19.028;2023-05-02T01:45:10;98284.16;;;11.43;49.93
40982;BME280;26708;50.304;19.028;2023-05-02T01:47:19;97907.75;;;9.26;49.90
40982;BME280;26708;50.304;19.028;2023-05-02T01:49:28;98242.50;;;11.18;49.98
40982;BME280;26708;50.304;19.028;2023-05-02T01:51:43;98277.34;;;11.23;50.03
40982;BME280;26708;50.304;19.028;2023-05-02T01:53:53;98239.09;;;11.11;50.04
40982;BME280;26708;50.304;19.028;2023-05-02T01:55:58;98259.00;;;11.27;50.14
40982;BME280;26708;50.304;19.028;2023-05-02T01:58:06;98279.03;;;11.33;50.27
40982;BME280;26708;50.304;19.028;2023-05-02T02:00:16;98285.16;;;11.32;50.44
40982;BME280;26708;50.304;19.028;2023-05-02T02:02:25;98269.44;;;11.29;50.49
40982;BME280;26708;50.304;19.028;2023-05-02T02:04:34;98279.91;;;11.32;50.59
40982;BME280;26708;50.304;19.028;2023-05-02T02:06:48;98117.66;;;10.32;50.58
40982;BME280;26708;50.304;19.028;2023-05-02T02:09:00;98117.72;;;10.26;50.63
40982;BME280;26708;50.304;19.028;2023-05-02T02:11:10;98277.31;;;11.30;50.84
40982;BME280;26708;50.304;19.028;2023-05-02T02:13:26;98233.03;;;11.05;50.93
40982;BME280;26708;50.304;19.028;2023-05-02T02:15:41;98273.81;;;11.30;51.00
40982;BME280;26708;50.304;19.028;2023-05-02T02:17:58;98272.03;;;11.33;50.96
40982;BME280;26708;50.304;19.028;2023-05-02T02:20:07;98044.81;;;9.90;50.98
40982;BME280;26708;50.304;19.028;2023-05-02T02:22:18;98282.44;;;11.39;50.90
40982;BME280;26708;50.304;19.028;2023-05-02T02:24:26;98239.78;;;11.25;50.93
40982;BME280;26708;50.304;19.028;2023-05-02T02:26:32;98237.22;;;11.21;50.77
40982;BME280;26708;50.304;19.028;2023-05-02T02:28:37;98231.34;;;10.99;50.72
40982;BME280;26708;50.304;19.028;2023-05-02T02:30:46;98258.97;;;11.30;50.72
40982;BME280;26708;50.304;19.028;2023-05-02T02:32:51;98160.03;;;10.73;50.70
40982;BME280;26708;50.304;19.028;2023-05-02T02:34:55;98278.03;;;11.41;50.83
40982;BME280;26708;50.304;19.028;2023-05-02T02:37:09;98285.06;;;11.38;50.85
40982;BME280;26708;50.304;19.028;2023-05-02T02:39:37;98289.47;;;11.36;51.07
40982;BME280;26708;50.304;19.028;2023-05-02T02:41:59;98292.97;;;11.36;51.00
40982;BME280;26708;50.304;19.028;2023-05-02T02:44:24;98275.50;;;11.35;50.97
40982;BME280;26708;50.304;19.028;2023-05-02T02:46:45;98235.53;;;11.17;50.90
40982;BME280;26708;50.304;19.028;2023-05-02T02:49:06;98250.25;;;11.28;50.88
40982;BME280;26708;50.304;19.028;2023-05-02T02:51:27;98266.66;;;11.45;50.76
40982;BME280;26708;50.304;19.028;2023-05-02T02:53:51;98246.75;;;11.26;50.77
40982;BME280;26708;50.304;19.028;2023-05-02T02:56:05;98181.78;;;10.77;50.71
40982;BME280;26708;50.304;19.028;2023-05-02T02:58:30;98102.69;;;10.48;50.79
40982;BME280;26708;50.304;19.028;2023-05-02T03:00:48;98287.53;;;11.54;50.62
40982;BME280;26708;50.304;19.028;2023-05-02T03:02:57;98199.16;;;10.84;50.48
40982;BME280;26708;50.304;19.028;2023-05-02T03:05:04;98118.28;;;10.57;50.62
40982;BME280;26708;50.304;19.028;2023-05-02T03:07:13;98291.88;;;11.57;50.65
40982;BME280;26708;50.304;19.028;2023-05-02T03:09:18;98043.72;;;10.14;50.61
40982;BME280;26708;50.304;19.028;2023-05-02T03:11:26;98284.84;;;11.57;50.66
40982;BME280;26708;50.304;19.028;2023-05-02T03:13:32;98044.66;;;10.10;50.49
40982;BME280;26708;50.304;19.028;2023-05-02T03:16:02;98057.69;;;10.14;50.63
40982;BME280;26708;50.304;19.028;2023-05-02T03:18:33;98286.69;;;11.52;50.83
40982;BME280;26708;50.304;19.028;2023-05-02T03:20:37;98247.66;;;11.27;50.96
40982;BME280;26708;50.304;19.028;2023-05-02T03:22:42;98285.00;;;11.47;50.98
40982;BME280;26708;50.304;19.028;2023-05-02T03:24:48;98292.88;;;11.45;51.06
40982;BME280;26708;50.304;19.028;2023-05-02T03:26:54;98238.16;;;11.15;51.06
40982;BME280;26708;50.304;19.028;2023-05-02T03:29:02;98214.84;;;10.91;51.08
40982;BME280;26708;50.304;19.028;2023-05-02T03:31:13;98282.31;;;11.51;50.86
40982;BME280;26708;50.304;19.028;2023-05-02T03:33:17;98305.91;;;11.51;50.76
40982;BME280;26708;50.304;19.028;2023-05-02T03:35:25;98284.91;;;11.54;50.78
40982;BME280;26708;50.304;19.028;2023-05-02T03:37:31;98211.91;;;11.18;50.47
40982;BME280;26708;50.304;19.028;2023-05-02T03:39:37;98243.97;;;11.41;50.54
40982;BME280;26708;50.304;19.028;2023-05-02T03:41:41;98281.28;;;11.67;50.25
40982;BME280;26708;50.304;19.028;2023-05-02T03:43:50;98214.47;;;11.27;50.09
40982;BME280;26708;50.304;19.028;2023-05-02T03:46:06;98285.63;;;11.68;49.72
40982;BME280;26708;50.304;19.028;2023-05-02T03:48:16;98255.22;;;11.51;49.67
40982;BME280;26708;50.304;19.028;2023-05-02T03:50:25;98243.16;;;11.38;49.56
40982;BME280;26708;50.304;19.028;2023-05-02T03:52:30;98283.81;;;11.73;49.57
40982;BME280;26708;50.304;19.028;2023-05-02T03:54:37;98272.47;;;11.73;49.34
40982;BME280;26708;50.304;19.028;2023-05-02T03:56:44;98117.25;;;10.71;48.90
40982;BME280;26708;50.304;19.028;2023-05-02T03:59:00;98243.78;;;11.59;48.77
40982;BME280;26708;50.304;19.028;2023-05-02T04:01:12;98244.59;;;11.64;48.68
40982;BME280;26708;50.304;19.028;2023-05-02T04:03:22;97975.78;;;10.12;48.42
40982;BME280;26708;50.304;19.028;2023-05-02T04:05:29;98247.13;;;11.70;48.55
40982;BME280;26708;50.304;19.028;2023-05-02T04:07:34;98290.50;;;11.98;48.40
40982;BME280;26708;50.304;19.028;2023-05-02T04:09:41;98167.44;;;11.15;47.94
40982;BME280;26708;50.304;19.028;2023-05-02T04:11:47;98293.75;;;12.18;47.74
40982;BME280;26708;50.304;19.028;2023-05-02T04:13:52;98287.63;;;12.19;47.34
40982;BME280;26708;50.304;19.028;2023-05-02T04:15:58;98296.22;;;12.30;47.34
40982;BME280;26708;50.304;19.028;2023-05-02T04:18:06;98273.72;;;12.12;46.88
40982;BME280;26708;50.304;19.028;2023-05-02T04:20:12;98297.91;;;12.34;46.74
40982;BME280;26708;50.304;19.028;2023-05-02T04:22:24;98300.50;;;12.37;46.69
40982;BME280;26708;50.304;19.028;2023-05-02T04:24:35;98305.69;;;12.41;46.63
40982;BME280;26708;50.304;19.028;2023-05-02T04:26:39;98305.63;;;12.46;46.65
40982;BME280;26708;50.304;19.028;2023-05-02T04:28:49;98305.53;;;12.52;46.36
40982;BME280;26708;50.304;19.028;2023-05-02T04:30:55;98279.47;;;12.38;46.24
40982;BME280;26708;50.304;19.028;2023-05-02T04:33:03;98308.91;;;12.60;46.03
40982;BME280;26708;50.304;19.028;2023-05-02T04:35:11;98312.38;;;12.62;45.93
40982;BME280;26708;50.304;19.028;2023-05-02T04:37:16;98310.59;;;12.65;46.02
40982;BME280;26708;50.304;19.028;2023-05-02T04:39:24;98178.00;;;11.77;45.98
40982;BME280;26708;50.304;19.028;2023-05-02T04:41:43;98296.63;;;12.60;46.00
40982;BME280;26708;50.304;19.028;2023-05-02T04:43:49;98141.44;;;11.67;45.78
40982;BME280;26708;50.304;19.028;2023-05-02T04:45:54;98193.28;;;12.13;45.68
40982;BME280;26708;50.304;19.028;2023-05-02T04:48:06;98164.56;;;11.99;45.37
40982;BME280;26708;50.304;19.028;2023-05-02T04:50:12;98298.03;;;12.84;45.24
40982;BME280;26708;50.304;19.028;2023-05-02T04:52:17;98134.94;;;11.94;44.96
40982;BME280;26708;50.304;19.028;2023-05-02T04:54:25;98040.34;;;11.51;44.89
40982;BME280;26708;50.304;19.028;2023-05-02T04:56:30;98074.31;;;11.57;44.95
40982;BME280;26708;50.304;19.028;2023-05-02T04:58:34;98295.03;;;13.06;44.80
40982;BME280;26708;50.304;19.028;2023-05-02T05:00:43;98312.28;;;13.22;44.77
40982;BME280;26708;50.304;19.028;2023-05-02T05:02:48;98236.72;;;12.85;44.41
40982;BME280;26708;50.304;19.028;2023-05-02T05:04:53;98315.47;;;13.42;44.52
40982;BME280;26708;50.304;19.028;2023-05-02T05:06:59;98278.03;;;13.28;44.07
40982;BME280;26708;50.304;19.028;2023-05-02T05:09:04;98313.31;;;13.62;43.74
40982;BME280;26708;50.304;19.028;2023-05-02T05:11:13;98093.41;;;12.23;43.59
40982;BME280;26708;50.304;19.028;2023-05-02T05:13:19;98072.09;;;12.41;43.28
40982;BME280;26708;50.304;19.028;2023-05-02T05:15:25;98314.47;;;13.93;43.14
40982;BME280;26708;50.304;19.028;2023-05-02T05:17:32;98314.31;;;14.02;42.77
40982;BME280;26708;50.304;19.028;2023-05-02T05:19:39;98323.78;;;14.11;42.68
40982;BME280;26708;50.304;19.028;2023-05-02T05:21:43;98324.50;;;14.19;42.48
40982;BME280;26708;50.304;19.028;2023-05-02T05:23:51;98290.56;;;14.07;42.44
40982;BME280;26708;50.304;19.028;2023-05-02T05:26:08;98324.06;;;14.38;42.04
40982;BME280;26708;50.304;19.028;2023-05-02T05:28:18;98282.16;;;14.29;41.66
40982;BME280;26708;50.304;19.028;2023-05-02T05:30:24;98323.47;;;14.65;41.90
40982;BME280;26708;50.304;19.028;2023-05-02T05:32:32;98328.41;;;14.80;41.17
40982;BME280;26708;50.304;19.028;2023-05-02T05:34:36;98255.38;;;14.49;40.97
40982;BME280;26708;50.304;19.028;2023-05-02T05:36:41;98325.13;;;15.07;40.75
40982;BME280;26708;50.304;19.028;2023-05-02T05:38:47;98290.09;;;15.02;40.56
40982;BME280;26708;50.304;19.028;2023-05-02T05:40:51;98087.38;;;13.90;40.31
40982;BME280;26708;50.304;19.028;2023-05-02T05:42:56;98327.66;;;15.47;40.53
40982;BME280;26708;50.304;19.028;2023-05-02T05:45:09;98325.59;;;15.58;39.97
40982;BME280;26708;50.304;19.028;2023-05-02T05:47:18;98269.78;;;15.41;39.67
40982;BME280;26708;50.304;19.028;2023-05-02T05:49:24;98195.72;;;15.16;39.11
40982;BME280;26708;50.304;19.028;2023-05-02T05:51:30;98324.34;;;16.04;38.37
40982;BME280;26708;50.304;19.028;2023-05-02T05:53:35;98267.78;;;15.81;38.71
40982;BME280;26708;50.304;19.028;2023-05-02T05:55:42;98203.97;;;15.67;37.31
40982;BME280;26708;50.304;19.028;2023-05-02T05:57:48;98277.06;;;16.25;36.98
40982;BME280;26708;50.304;19.028;2023-05-02T05:59:53;98340.75;;;16.74;35.98
40982;BME280;26708;50.304;19.028;2023-05-02T06:02:00;98287.13;;;16.69;35.78
40982;BME280;26708;50.304;19.028;2023-05-02T06:04:06;98291.34;;;17.04;35.44
40982;BME280;26708;50.304;19.028;2023-05-02T06:06:15;98320.41;;;17.31;35.09
40982;BME280;26708;50.304;19.028;2023-05-02T06:08:20;98328.56;;;17.50;34.77
40982;BME280;26708;50.304;19.028;2023-05-02T06:10:25;98257.56;;;17.12;34.59
40982;BME280;26708;50.304;19.028;2023-05-02T06:12:31;98311.41;;;17.35;34.39
40982;BME280;26708;50.304;19.028;2023-05-02T06:14:35;98294.97;;;17.52;34.56
40982;BME280;26708;50.304;19.028;2023-05-02T06:16:41;98329.34;;;17.79;34.25
40982;BME280;26708;50.304;19.028;2023-05-02T06:18:50;98337.13;;;17.84;34.02
40982;BME280;26708;50.304;19.028;2023-05-02T06:20:56;98319.59;;;17.80;34.10
40982;BME280;26708;50.304;19.028;2023-05-02T06:23:02;98139.69;;;16.79;34.10
40982;BME280;26708;50.304;19.028;2023-05-02T06:25:07;98206.63;;;17.31;34.20
40982;BME280;26708;50.304;19.028;2023-05-02T06:27:12;98343.69;;;18.21;33.94
40982;BME280;26708;50.304;19.028;2023-05-02T06:29:18;98315.69;;;18.14;34.34
40982;BME280;26708;50.304;19.028;2023-05-02T06:31:22;98272.59;;;17.86;33.83
40982;BME280;26708;50.304;19.028;2023-05-02T06:33:27;98350.09;;;18.40;34.45
40982;BME280;26708;50.304;19.028;2023-05-02T06:35:35;98336.84;;;18.40;34.27
40982;BME280;26708;50.304;19.028;2023-05-02T06:37:39;98289.19;;;18.14;34.22
40982;BME280;26708;50.304;19.028;2023-05-02T06:39:44;98357.28;;;18.60;34.05
40982;BME280;26708;50.304;19.028;2023-05-02T06:41:49;98333.03;;;18.47;34.06
40982;BME280;26708;50.304;19.028;2023-05-02T06:43:54;98362.25;;;18.69;34.16
40982;BME280;26708;50.304;19.028;2023-05-02T06:46:00;98270.13;;;18.05;34.07
40982;BME280;26708;50.304;19.028;2023-05-02T06:48:06;98237.69;;;17.98;33.51
40982;BME280;26708;50.304;19.028;2023-05-02T06:50:10;98378.41;;;18.84;33.70
40982;BME280;26708;50.304;19.028;2023-05-02T06:52:18;98372.13;;;18.87;34.06
40982;BME280;26708;50.304;19.028;2023-05-02T06:54:23;98371.78;;;18.96;33.91
40982;BME280;26708;50.304;19.028;2023-05-02T06:56:28;98238.63;;;18.20;33.87
40982;BME280;26708;50.304;19.028;2023-05-02T06:58:36;98373.03;;;19.09;33.94
40982;BME280;26708;50.304;19.028;2023-05-02T07:00:41;98278.63;;;18.59;33.79
40982;BME280;26708;50.304;19.028;2023-05-02T07:02:47;98204.28;;;18.17;33.62
40982;BME280;26708;50.304;19.028;2023-05-02T07:04:52;98385.72;;;19.24;33.49
40982;BME280;26708;50.304;19.028;2023-05-02T07:06:58;98280.09;;;18.67;33.37
40982;BME280;26708;50.304;19.028;2023-05-02T07:09:05;98389.56;;;19.38;33.34
40982;BME280;26708;50.304;19.028;2023-05-02T07:11:12;98221.75;;;18.46;33.33
40982;BME280;26708;50.304;19.028;2023-05-02T07:13:19;98060.75;;;17.40;33.43
40982;BME280;26708;50.304;19.028;2023-05-02T07:15:25;98345.03;;;19.23;33.22
40982;BME280;26708;50.304;19.028;2023-05-02T07:17:30;98221.13;;;18.61;33.00
40982;BME280;26708;50.304;19.028;2023-05-02T07:19:36;98346.22;;;19.38;33.22
40982;BME280;26708;50.304;19.028;2023-05-02T07:21:43;98402.66;;;19.86;32.87
40982;BME280;26708;50.304;19.028;2023-05-02T07:24:02;98192.25;;;18.53;32.94
40982;BME280;26708;50.304;19.028;2023-05-02T07:26:27;98152.19;;;18.39;33.04
40982;BME280;26708;50.304;19.028;2023-05-02T07:28:44;98181.53;;;18.56;32.87
40982;BME280;26708;50.304;19.028;2023-05-02T07:31:07;98259.31;;;19.21;32.71
40982;BME280;26708;50.304;19.028;2023-05-02T07:39:00;98375.25;;;19.84;32.54
40982;BME280;26708;50.304;19.028;2023-05-02T07:41:07;98372.41;;;19.67;32.51
40982;BME280;26708;50.304;19.028;2023-05-02T07:43:12;98101.81;;;18.18;32.65
40982;BME280;26708;50.304;19.028;2023-05-02T07:45:18;98294.00;;;19.17;32.29
40982;BME280;26708;50.304;19.028;2023-05-02T07:47:23;98424.38;;;19.95;32.58
40982;BME280;26708;50.304;19.028;2023-05-02T07:49:27;98423.56;;;19.93;32.69
40982;BME280;26708;50.304;19.028;2023-05-02T07:51:33;98419.19;;;19.92;32.88
40982;BME280;26708;50.304;19.028;2023-05-02T07:53:39;98410.63;;;19.84;32.81
40982;BME280;26708;50.304;19.028;2023-05-02T07:55:44;98377.91;;;19.62;32.77
40982;BME280;26708;50.304;19.028;2023-05-02T07:57:52;98348.34;;;19.50;32.74
40982;BME280;26708;50.304;19.028;2023-05-02T07:59:59;98214.84;;;18.63;32.84
40982;BME280;26708;50.304;19.028;2023-05-02T08:02:14;98426.91;;;19.98;32.09
40982;BME280;26708;50.304;19.028;2023-05-02T08:04:21;98432.69;;;20.08;32.24
40982;BME280;26708;50.304;19.028;2023-05-02T08:06:25;98354.59;;;19.49;32.32
40982;BME280;26708;50.304;19.028;2023-05-02T08:08:30;98303.34;;;19.47;32.04
40982;BME280;26708;50.304;19.028;2023-05-02T08:10:35;98419.84;;;20.17;32.01
40982;BME280;26708;50.304;19.028;2023-05-02T08:12:41;98322.13;;;19.62;32.16
40982;BME280;26708;50.304;19.028;2023-05-02T08:14:48;98422.19;;;20.25;32.06
40982;BME280;26708;50.304;19.028;2023-05-02T08:16:53;98253.75;;;19.27;31.66
40982;BME280;26708;50.304;19.028;2023-05-02T08:18:58;98438.34;;;20.20;31.88
40982;BME280;26708;50.304;19.028;2023-05-02T08:21:03;98429.91;;;20.31;31.58
40982;BME280;26708;50.304;19.028;2023-05-02T08:23:09;98195.72;;;18.97;31.80
40982;BME280;26708;50.304;19.028;2023-05-02T08:25:15;98438.75;;;20.31;32.00
40982;BME280;26708;50.304;19.028;2023-05-02T08:27:19;98407.28;;;20.21;31.77
40982;BME280;26708;50.304;19.028;2023-05-02T08:29:24;98424.81;;;20.26;31.76
40982;BME280;26708;50.304;19.028;2023-05-02T08:31:32;98309.16;;;19.56;31.77
40982;BME280;26708;50.304;19.028;2023-05-02T08:33:36;98365.38;;;20.07;31.95
40982;BME280;26708;50.304;19.028;2023-05-02T08:35:41;98432.69;;;20.48;31.62
40982;BME280;26708;50.304;19.028;2023-05-02T08:37:46;98340.16;;;19.76;31.40
40982;BME280;26708;50.304;19.028;2023-05-02T08:39:51;98328.31;;;19.83;31.77
40982;BME280;26708;50.304;19.028;2023-05-02T08:42:05;98256.19;;;19.32;31.73
40982;BME280;26708;50.304;19.028;2023-05-02T08:44:14;98447.78;;;20.47;31.95
40982;BME280;26708;50.304;19.028;2023-05-02T08:46:24;98390.50;;;20.20;31.80
40982;BME280;26708;50.304;19.028;2023-05-02T08:48:34;98228.78;;;19.11;31.73
40982;BME280;26708;50.304;19.028;2023-05-02T08:50:42;98411.38;;;20.29;32.00
40982;BME280;26708;50.304;19.028;2023-05-02T08:52:50;98447.50;;;20.53;32.25
40982;BME280;26708;50.304;19.028;2023-05-02T08:55:00;98327.94;;;19.72;32.15
40982;BME280;26708;50.304;19.028;2023-05-02T08:57:07;98313.22;;;19.85;32.03
40982;BME280;26708;50.304;19.028;2023-05-02T08:59:12;98116.09;;;18.57;31.69
40982;BME280;26708;50.304;19.028;2023-05-02T09:01:39;98282.72;;;19.73;31.88
40982;BME280;26708;50.304;19.028;2023-05-02T09:04:30;98382.84;;;20.33;32.09
40982;BME280;26708;50.304;19.028;2023-05-02T09:06:38;98346.91;;;20.04;32.21
40982;BME280;26708;50.304;19.028;2023-05-02T09:08:44;98440.56;;;20.70;32.24
40982;BME280;26708;50.304;19.028;2023-05-02T09:10:58;98424.78;;;20.46;32.05
40982;BME280;26708;50.304;19.028;2023-05-02T09:13:29;98156.88;;;19.17;32.17
40982;BME280;26708;50.304;19.028;2023-05-02T09:15:56;98331.34;;;20.15;31.99
40982;BME280;26708;50.304;19.028;2023-05-02T09:20:39;98392.59;;;20.52;32.48
40982;BME280;26708;50.304;19.028;2023-05-02T09:22:49;98219.16;;;19.49;32.59
40982;BME280;26708;50.304;19.028;2023-05-02T09:24:56;98140.75;;;19.00;32.20
40982;BME280;26708;50.304;19.028;2023-05-02T09:29:41;98124.41;;;18.69;32.74
40982;BME280;26708;50.304;19.028;2023-05-02T09:32:16;98139.81;;;18.81;32.79
40982;BME280;26708;50.304;19.028;2023-05-02T09:34:37;98307.97;;;20.03;32.85
40982;BME280;26708;50.304;19.028;2023-05-02T09:37:35;98255.69;;;19.84;33.01
40982;BME280;26708;50.304;19.028;2023-05-02T09:40:05;98132.78;;;19.00;32.92
40982;BME280;26708;50.304;19.028;2023-05-02T09:42:30;98462.25;;;21.00;33.10
40982;BME280;26708;50.304;19.028;2023-05-02T09:44:41;98156.78;;;19.19;33.23
40982;BME280;26708;50.304;19.028;2023-05-02T09:46:51;98142.47;;;19.23;32.99
40982;BME280;26708;50.304;19.028;2023-05-02T09:49:41;98135.34;;;19.03;33.20
40982;BME280;26708;50.304;19.028;2023-05-02T09:52:16;98322.22;;;20.21;33.22
40982;BME280;26708;50.304;19.028;2023-05-02T09:54:41;98130.66;;;19.08;33.61
40982;BME280;26708;50.304;19.028;2023-05-02T09:56:54;98268.28;;;19.79;33.74
40982;BME280;26708;50.304;19.028;2023-05-02T09:59:12;98297.19;;;19.86;33.94
40982;BME280;26708;50.304;19.028;2023-05-02T10:01:56;98514.06;;;20.73;34.32
40982;BME280;26708;50.304;19.028;2023-05-02T10:04:13;98474.34;;;20.68;35.22
40982;BME280;26708;50.304;19.028;2023-05-02T10:06:24;98318.50;;;19.65;35.96
40982;BME280;26708;50.304;19.028;2023-05-02T10:08:39;98213.56;;;18.93;36.40
40982;BME280;26708;50.304;19.028;2023-05-02T10:10:57;98263.38;;;19.30;36.71
40982;BME280;26708;50.304;19.028;2023-05-02T10:13:19;98318.09;;;19.54;36.64
40982;BME280;26708;50.304;19.028;2023-05-02T10:15:42;98176.84;;;18.41;36.77
40982;BME280;26708;50.304;19.028;2023-05-02T10:18:00;98295.78;;;19.16;36.93
40982;BME280;26708;50.304;19.028;2023-05-02T10:20:22;98351.72;;;19.33;37.30
40982;BME280;26708;50.304;19.028;2023-05-02T10:22:39;98296.06;;;19.09;37.25
40982;BME280;26708;50.304;19.028;2023-05-02T10:27:18;98336.28;;;19.21;37.83
40982;BME280;26708;50.304;19.028;2023-05-02T10:29:25;98270.59;;;18.83;37.61
40982;BME280;26708;50.304;19.028;2023-05-02T10:31:39;98410.09;;;19.76;37.53
40982;BME280;26708;50.304;19.028;2023-05-02T10:34:38;98501.19;;;20.23;37.84
40982;BME280;26708;50.304;19.028;2023-05-02T10:36:55;98214.44;;;18.51;37.89
40982;BME280;26708;50.304;19.028;2023-05-02T10:39:02;98341.16;;;19.32;38.08
40982;BME280;26708;50.304;19.028;2023-05-02T10:41:20;98410.03;;;19.78;38.08
40982;BME280;26708;50.304;19.028;2023-05-02T10:43:40;98214.75;;;18.65;37.99
40982;BME280;26708;50.304;19.028;2023-05-02T10:45:59;98378.50;;;19.49;37.38
40982;BME280;26708;50.304;19.028;2023-05-02T10:50:47;98176.03;;;18.39;37.76
40982;BME280;26708;50.304;19.028;2023-05-02T10:56:29;98194.34;;;18.45;37.86
40982;BME280;26708;50.304;19.028;2023-05-02T10:58:36;98315.59;;;19.29;38.10
40982;BME280;26708;50.304;19.028;2023-05-02T11:00:41;98178.69;;;18.39;38.16
40982;BME280;26708;50.304;19.028;2023-05-02T11:05:09;98360.53;;;19.34;38.06
40982;BME280;26708;50.304;19.028;2023-05-02T11:07:17;98350.72;;;19.36;38.25
40982;BME280;26708;50.304;19.028;2023-05-02T11:09:32;98415.97;;;19.63;37.97
40982;BME280;26708;50.304;19.028;2023-05-02T11:11:48;98349.69;;;19.18;38.39
40982;BME280;26708;50.304;19.028;2023-05-02T11:13:57;98382.56;;;19.36;38.53
40982;BME280;26708;50.304;19.028;2023-05-02T11:16:02;98342.16;;;19.06;38.34
40982;BME280;26708;50.304;19.028;2023-05-02T11:18:13;98367.56;;;19.13;38.55
40982;BME280;26708;50.304;19.028;2023-05-02T11:20:23;98220.28;;;18.14;38.50
40982;BME280;26708;50.304;19.028;2023-05-02T11:25:40;98342.09;;;18.86;38.54
40982;BME280;26708;50.304;19.028;2023-05-02T11:31:54;98474.16;;;19.92;38.68
40982;BME280;26708;50.304;19.028;2023-05-02T11:34:45;98192.03;;;18.38;38.78
40982;BME280;26708;50.304;19.028;2023-05-02T11:37:19;98371.94;;;19.57;38.61
40982;BME280;26708;50.304;19.028;2023-05-02T11:40:21;98396.78;;;19.56;38.51
40982;BME280;26708;50.304;19.028;2023-05-02T11:43:21;98319.13;;;19.30;38.67
40982;BME280;26708;50.304;19.028;2023-05-02T11:45:46;98535.50;;;20.48;38.16
40982;BME280;26708;50.304;19.028;2023-05-02T11:48:10;98337.91;;;19.25;38.26
40982;BME280;26708;50.304;19.028;2023-05-02T11:50:18;98390.84;;;19.50;39.18
40982;BME280;26708;50.304;19.028;2023-05-02T11:52:37;98202.81;;;18.32;39.23
40982;BME280;26708;50.304;19.028;2023-05-02T11:55:13;98279.16;;;18.68;38.93